sensor_id;sensor_type;location;lat;lon;timestamp;P1;durP1;ratioP1;P2;durP2;ratioP2
68457;SDS011;65384;52.016;5.428;2022-12-10T00:01:42;47.08;;;16.17;;
68457;SDS011;65384;52.016;5.428;2022-12-10T00:04:07;40.70;;;14.38;;
68457;SDS011;65384;52.016;5.428;2022-12-10T00:06:34;48.75;;;15.02;;
68457;SDS011;65384;52.016;5.428;2022-12-10T00:09:00;53.80;;;15.50;;
68457;SDS011;65384;52.016;5.428;2022-12-10T00:11:27;48.63;;;15.85;;
68457;SDS011;65384;52.016;5.428;2022-12-10T00:13:52;44.38;;;14.93;;
68457;SDS011;65384;52.016;5.428;2022-12-10T00:16:19;48.85;;;15.05;;
68457;SDS011;65384;52.016;5.428;2022-12-10T00:18:45;54.70;;;16.77;;
68457;SDS011;65384;52.016;5.428;2022-12-10T00:21:13;52.50;;;16.83;;
68457;SDS011;65384;52.016;5.428;2022-12-10T00:23:40;48.65;;;15.68;;
68457;SDS011;65384;52.016;5.428;2022-12-10T00:26:07;51.97;;;15.80;;
68457;SDS011;65384;52.016;5.428;2022-12-10T00:28:33;44.72;;;15.00;;
68457;SDS011;65384;52.016;5.428;2022-12-10T00:31:06;43.80;;;14.70;;
68457;SDS011;65384;52.016;5.428;2022-12-10T00:33:33;52.95;;;17.45;;
68457;SDS011;65384;52.016;5.428;2022-12-10T00:36:03;53.03;;;16.02;;
68457;SDS011;65384;52.016;5.428;2022-12-10T00:38:32;51.92;;;16.98;;
68457;SDS011;65384;52.016;5.428;2022-12-10T00:40:58;55.03;;;16.27;;
68457;SDS011;65384;52.016;5.428;2022-12-10T00:43:24;40.10;;;13.73;;
68457;SDS011;65384;52.016;5.428;2022-12-10T00:45:50;41.80;;;14.70;;
68457;SDS011;65384;52.016;5.428;2022-12-10T00:48:15;51.92;;;16.80;;
68457;SDS011;65384;52.016;5.428;2022-12-10T00:50:40;48.22;;;14.65;;
68457;SDS011;65384;52.016;5.428;2022-12-10T00:53:06;42.08;;;14.15;;
68457;SDS011;65384;52.016;5.428;2022-12-10T00:55:31;52.80;;;17.08;;
68457;SDS011;65384;52.016;5.428;2022-12-10T00:57:56;47.25;;;15.90;;
68457;SDS011;65384;52.016;5.428;2022-12-10T01:00:22;55.20;;;17.40;;
68457;SDS011;65384;52.016;5.428;2022-12-10T01:02:48;52.85;;;15.45;;
68457;SDS011;65384;52.016;5.428;2022-12-10T01:05:13;45.58;;;14.98;;
68457;SDS011;65384;52.016;5.428;2022-12-10T01:07:38;53.85;;;17.85;;
68457;SDS011;65384;52.016;5.428;2022-12-10T01:10:04;53.95;;;16.50;;
68457;SDS011;65384;52.016;5.428;2022-12-10T01:12:29;44.95;;;15.20;;
68457;SDS011;65384;52.016;5.428;2022-12-10T01:14:54;41.03;;;14.82;;
68457;SDS011;65384;52.016;5.428;2022-12-10T01:17:20;51.38;;;17.30;;
68457;SDS011;65384;52.016;5.428;2022-12-10T01:19:46;45.45;;;15.85;;
68457;SDS011;65384;52.016;5.428;2022-12-10T01:22:11;58.30;;;17.90;;
68457;SDS011;65384;52.016;5.428;2022-12-10T01:24:37;57.97;;;18.55;;
68457;SDS011;65384;52.016;5.428;2022-12-10T01:27:02;51.38;;;15.55;;
68457;SDS011;65384;52.016;5.428;2022-12-10T01:29:28;53.42;;;16.58;;
68457;SDS011;65384;52.016;5.428;2022-12-10T01:31:54;55.92;;;17.20;;
68457;SDS011;65384;52.016;5.428;2022-12-10T01:34:21;52.10;;;18.48;;
68457;SDS011;65384;52.016;5.428;2022-12-10T01:36:48;51.42;;;16.58;;
68457;SDS011;65384;52.016;5.428;2022-12-10T01:39:17;50.90;;;16.20;;
68457;SDS011;65384;52.016;5.428;2022-12-10T01:41:44;57.15;;;18.05;;
68457;SDS011;65384;52.016;5.428;2022-12-10T01:46:38;60.83;;;19.13;;
68457;SDS011;65384;52.016;5.428;2022-12-10T01:49:08;51.53;;;16.48;;
68457;SDS011;65384;52.016;5.428;2022-12-10T01:51:37;58.15;;;17.55;;
68457;SDS011;65384;52.016;5.428;2022-12-10T01:54:04;56.28;;;17.80;;
68457;SDS011;65384;52.016;5.428;2022-12-10T01:56:30;60.72;;;18.77;;
68457;SDS011;65384;52.016;5.428;2022-12-10T01:58:56;61.97;;;17.92;;
68457;SDS011;65384;52.016;5.428;2022-12-10T02:01:25;51.92;;;16.67;;
68457;SDS011;65384;52.016;5.428;2022-12-10T02:07:04;54.65;;;17.45;;
68457;SDS011;65384;52.016;5.428;2022-12-10T02:12:33;60.45;;;16.92;;
68457;SDS011;65384;52.016;5.428;2022-12-10T02:15:12;58.17;;;15.40;;
68457;SDS011;65384;52.016;5.428;2022-12-10T02:22:44;74.80;;;19.00;;
68457;SDS011;65384;52.016;5.428;2022-12-10T02:25:15;69.60;;;18.60;;
68457;SDS011;65384;52.016;5.428;2022-12-10T02:30:19;78.57;;;17.45;;
68457;SDS011;65384;52.016;5.428;2022-12-10T02:32:45;79.13;;;20.02;;
68457;SDS011;65384;52.016;5.428;2022-12-10T02:35:19;68.25;;;19.38;;
68457;SDS011;65384;52.016;5.428;2022-12-10T02:38:06;76.85;;;20.73;;
68457;SDS011;65384;52.016;5.428;2022-12-10T02:40:35;67.97;;;18.95;;
68457;SDS011;65384;52.016;5.428;2022-12-10T02:43:02;74.80;;;18.60;;
68457;SDS011;65384;52.016;5.428;2022-12-10T02:45:28;75.97;;;19.52;;
68457;SDS011;65384;52.016;5.428;2022-12-10T02:47:57;78.57;;;20.73;;
68457;SDS011;65384;52.016;5.428;2022-12-10T02:50:23;90.75;;;17.50;;
68457;SDS011;65384;52.016;5.428;2022-12-10T02:52:49;72.00;;;18.92;;
68457;SDS011;65384;52.016;5.428;2022-12-10T02:55:15;69.95;;;17.15;;
68457;SDS011;65384;52.016;5.428;2022-12-10T03:00:20;101.43;;;19.55;;
68457;SDS011;65384;52.016;5.428;2022-12-10T03:11:31;106.07;;;20.05;;
68457;SDS011;65384;52.016;5.428;2022-12-10T03:14:02;69.60;;;18.88;;
68457;SDS011;65384;52.016;5.428;2022-12-10T03:16:31;63.80;;;14.20;;
68457;SDS011;65384;52.016;5.428;2022-12-10T03:19:00;150.20;;;20.55;;
68457;SDS011;65384;52.016;5.428;2022-12-10T03:21:28;79.15;;;19.67;;
68457;SDS011;65384;52.016;5.428;2022-12-10T03:23:54;76.65;;;19.88;;
68457;SDS011;65384;52.016;5.428;2022-12-10T03:26:20;94.20;;;20.58;;
68457;SDS011;65384;52.016;5.428;2022-12-10T03:28:49;83.15;;;20.25;;
68457;SDS011;65384;52.016;5.428;2022-12-10T03:31:15;73.20;;;19.73;;
68457;SDS011;65384;52.016;5.428;2022-12-10T03:33:41;73.30;;;18.45;;
68457;SDS011;65384;52.016;5.428;2022-12-10T03:36:08;88.22;;;18.85;;
68457;SDS011;65384;52.016;5.428;2022-12-10T03:38:34;96.05;;;16.75;;
68457;SDS011;65384;52.016;5.428;2022-12-10T03:41:00;104.15;;;18.90;;
68457;SDS011;65384;52.016;5.428;2022-12-10T03:43:26;73.53;;;17.83;;
68457;SDS011;65384;52.016;5.428;2022-12-10T03:45:51;92.70;;;18.85;;
68457;SDS011;65384;52.016;5.428;2022-12-10T03:48:16;74.28;;;17.23;;
68457;SDS011;65384;52.016;5.428;2022-12-10T03:50:42;83.13;;;18.00;;
68457;SDS011;65384;52.016;5.428;2022-12-10T03:53:07;77.47;;;16.83;;
68457;SDS011;65384;52.016;5.428;2022-12-10T03:55:32;122.95;;;18.35;;
68457;SDS011;65384;52.016;5.428;2022-12-10T03:57:58;75.32;;;16.77;;
68457;SDS011;65384;52.016;5.428;2022-12-10T04:00:23;96.85;;;18.17;;
68457;SDS011;65384;52.016;5.428;2022-12-10T04:02:49;92.13;;;18.50;;
68457;SDS011;65384;52.016;5.428;2022-12-10T04:05:14;88.85;;;18.23;;
68457;SDS011;65384;52.016;5.428;2022-12-10T04:07:40;97.30;;;17.65;;
68457;SDS011;65384;52.016;5.428;2022-12-10T04:10:06;66.82;;;16.40;;
68457;SDS011;65384;52.016;5.428;2022-12-10T04:12:31;80.72;;;17.45;;
68457;SDS011;65384;52.016;5.428;2022-12-10T04:14:57;100.47;;;17.90;;
68457;SDS011;65384;52.016;5.428;2022-12-10T04:17:41;97.90;;;18.55;;
68457;SDS011;65384;52.016;5.428;2022-12-10T04:20:06;115.15;;;18.13;;
68457;SDS011;65384;52.016;5.428;2022-12-10T04:22:52;111.55;;;17.05;;
68457;SDS011;65384;52.016;5.428;2022-12-10T04:25:35;89.38;;;15.43;;
68457;SDS011;65384;52.016;5.428;2022-12-10T04:28:20;100.82;;;15.50;;
68457;SDS011;65384;52.016;5.428;2022-12-10T04:30:45;113.53;;;17.40;;
68457;SDS011;65384;52.016;5.428;2022-12-10T04:33:10;94.38;;;17.35;;
68457;SDS011;65384;52.016;5.428;2022-12-10T04:35:36;98.55;;;16.92;;
68457;SDS011;65384;52.016;5.428;2022-12-10T04:38:01;86.93;;;17.85;;
68457;SDS011;65384;52.016;5.428;2022-12-10T04:40:26;110.72;;;17.00;;
68457;SDS011;65384;52.016;5.428;2022-12-10T04:42:52;100.18;;;17.70;;
68457;SDS011;65384;52.016;5.428;2022-12-10T04:45:17;105.40;;;16.05;;
68457;SDS011;65384;52.016;5.428;2022-12-10T04:47:42;93.22;;;16.35;;
68457;SDS011;65384;52.016;5.428;2022-12-10T04:50:08;169.70;;;17.92;;
68457;SDS011;65384;52.016;5.428;2022-12-10T04:52:33;89.75;;;16.67;;
68457;SDS011;65384;52.016;5.428;2022-12-10T04:54:58;85.82;;;15.38;;
68457;SDS011;65384;52.016;5.428;2022-12-10T04:57:24;124.68;;;18.23;;
68457;SDS011;65384;52.016;5.428;2022-12-10T04:59:49;98.80;;;16.63;;
68457;SDS011;65384;52.016;5.428;2022-12-10T05:02:14;126.30;;;18.23;;
68457;SDS011;65384;52.016;5.428;2022-12-10T05:04:40;115.05;;;17.85;;
68457;SDS011;65384;52.016;5.428;2022-12-10T05:07:05;120.90;;;17.15;;
68457;SDS011;65384;52.016;5.428;2022-12-10T05:09:30;108.47;;;18.80;;
68457;SDS011;65384;52.016;5.428;2022-12-10T05:11:56;113.38;;;18.05;;
68457;SDS011;65384;52.016;5.428;2022-12-10T05:14:21;96.53;;;17.52;;
68457;SDS011;65384;52.016;5.428;2022-12-10T05:16:48;103.10;;;17.88;;
68457;SDS011;65384;52.016;5.428;2022-12-10T05:19:15;128.23;;;18.17;;
68457;SDS011;65384;52.016;5.428;2022-12-10T05:21:41;100.72;;;18.58;;
68457;SDS011;65384;52.016;5.428;2022-12-10T05:24:24;115.88;;;19.00;;
68457;SDS011;65384;52.016;5.428;2022-12-10T05:26:50;85.90;;;16.08;;
68457;SDS011;65384;52.016;5.428;2022-12-10T05:29:16;73.10;;;16.50;;
68457;SDS011;65384;52.016;5.428;2022-12-10T05:31:41;87.15;;;14.23;;
68457;SDS011;65384;52.016;5.428;2022-12-10T05:34:08;90.63;;;13.35;;
68457;SDS011;65384;52.016;5.428;2022-12-10T05:36:35;83.82;;;14.25;;
68457;SDS011;65384;52.016;5.428;2022-12-10T05:39:00;117.05;;;15.32;;
68457;SDS011;65384;52.016;5.428;2022-12-10T05:41:27;89.30;;;14.07;;
68457;SDS011;65384;52.016;5.428;2022-12-10T05:43:54;91.22;;;14.80;;
68457;SDS011;65384;52.016;5.428;2022-12-10T05:46:21;98.57;;;15.90;;
68457;SDS011;65384;52.016;5.428;2022-12-10T05:48:48;58.47;;;12.23;;
68457;SDS011;65384;52.016;5.428;2022-12-10T05:51:15;70.70;;;15.10;;
68457;SDS011;65384;52.016;5.428;2022-12-10T05:53:42;87.53;;;14.98;;
68457;SDS011;65384;52.016;5.428;2022-12-10T05:56:09;36.85;;;11.43;;
68457;SDS011;65384;52.016;5.428;2022-12-10T05:58:39;82.57;;;15.02;;
68457;SDS011;65384;52.016;5.428;2022-12-10T06:01:05;71.53;;;15.10;;
68457;SDS011;65384;52.016;5.428;2022-12-10T06:03:32;88.57;;;16.80;;
68457;SDS011;65384;52.016;5.428;2022-12-10T06:05:57;76.75;;;13.73;;
68457;SDS011;65384;52.016;5.428;2022-12-10T06:08:23;76.05;;;16.58;;
68457;SDS011;65384;52.016;5.428;2022-12-10T06:10:48;82.05;;;15.15;;
68457;SDS011;65384;52.016;5.428;2022-12-10T06:13:13;75.30;;;14.80;;
68457;SDS011;65384;52.016;5.428;2022-12-10T06:15:40;82.10;;;14.90;;
68457;SDS011;65384;52.016;5.428;2022-12-10T06:18:06;87.93;;;16.10;;
68457;SDS011;65384;52.016;5.428;2022-12-10T06:20:31;93.72;;;16.77;;
68457;SDS011;65384;52.016;5.428;2022-12-10T06:22:57;87.90;;;15.85;;
68457;SDS011;65384;52.016;5.428;2022-12-10T06:25:22;82.07;;;14.80;;
68457;SDS011;65384;52.016;5.428;2022-12-10T06:27:48;70.95;;;15.77;;
68457;SDS011;65384;52.016;5.428;2022-12-10T06:30:13;94.72;;;16.52;;
68457;SDS011;65384;52.016;5.428;2022-12-10T06:32:38;104.97;;;16.90;;
68457;SDS011;65384;52.016;5.428;2022-12-10T06:35:04;82.13;;;17.00;;
68457;SDS011;65384;52.016;5.428;2022-12-10T06:37:30;112.03;;;18.40;;
68457;SDS011;65384;52.016;5.428;2022-12-10T06:39:55;83.13;;;17.15;;
68457;SDS011;65384;52.016;5.428;2022-12-10T06:42:21;61.72;;;15.00;;
68457;SDS011;65384;52.016;5.428;2022-12-10T06:44:46;112.43;;;17.83;;
68457;SDS011;65384;52.016;5.428;2022-12-10T06:47:12;68.75;;;13.00;;
68457;SDS011;65384;52.016;5.428;2022-12-10T06:49:37;73.32;;;15.75;;
68457;SDS011;65384;52.016;5.428;2022-12-10T06:52:03;98.43;;;17.00;;
68457;SDS011;65384;52.016;5.428;2022-12-10T06:54:28;84.60;;;15.65;;
68457;SDS011;65384;52.016;5.428;2022-12-10T06:56:54;50.75;;;13.18;;
68457;SDS011;65384;52.016;5.428;2022-12-10T06:59:20;76.18;;;16.25;;
68457;SDS011;65384;52.016;5.428;2022-12-10T07:01:45;69.63;;;13.38;;
68457;SDS011;65384;52.016;5.428;2022-12-10T07:04:11;80.13;;;15.52;;
68457;SDS011;65384;52.016;5.428;2022-12-10T07:06:37;74.97;;;16.33;;
68457;SDS011;65384;52.016;5.428;2022-12-10T07:09:02;83.88;;;15.82;;
68457;SDS011;65384;52.016;5.428;2022-12-10T07:11:27;90.20;;;15.75;;
68457;SDS011;65384;52.016;5.428;2022-12-10T07:13:55;74.97;;;16.55;;
68457;SDS011;65384;52.016;5.428;2022-12-10T07:16:25;64.75;;;13.32;;
68457;SDS011;65384;52.016;5.428;2022-12-10T07:18:52;90.95;;;16.00;;
68457;SDS011;65384;52.016;5.428;2022-12-10T07:21:26;88.47;;;16.13;;
68457;SDS011;65384;52.016;5.428;2022-12-10T07:23:54;57.45;;;13.63;;
68457;SDS011;65384;52.016;5.428;2022-12-10T07:26:23;63.72;;;15.48;;
68457;SDS011;65384;52.016;5.428;2022-12-10T07:28:48;77.78;;;14.10;;
68457;SDS011;65384;52.016;5.428;2022-12-10T07:31:14;85.25;;;15.45;;
68457;SDS011;65384;52.016;5.428;2022-12-10T07:33:39;92.18;;;17.73;;
68457;SDS011;65384;52.016;5.428;2022-12-10T07:36:09;97.32;;;16.98;;
68457;SDS011;65384;52.016;5.428;2022-12-10T07:38:35;82.55;;;16.52;;
68457;SDS011;65384;52.016;5.428;2022-12-10T07:41:02;57.00;;;13.90;;
68457;SDS011;65384;52.016;5.428;2022-12-10T07:43:29;62.30;;;14.02;;
68457;SDS011;65384;52.016;5.428;2022-12-10T07:45:54;68.93;;;12.77;;
68457;SDS011;65384;52.016;5.428;2022-12-10T07:48:20;61.78;;;13.18;;
68457;SDS011;65384;52.016;5.428;2022-12-10T07:50:45;84.30;;;16.05;;
68457;SDS011;65384;52.016;5.428;2022-12-10T07:53:10;84.57;;;16.98;;
68457;SDS011;65384;52.016;5.428;2022-12-10T07:55:36;66.18;;;14.50;;
68457;SDS011;65384;52.016;5.428;2022-12-10T07:58:02;63.55;;;14.23;;
68457;SDS011;65384;52.016;5.428;2022-12-10T08:00:28;62.33;;;14.82;;
68457;SDS011;65384;52.016;5.428;2022-12-10T08:02:53;86.22;;;12.95;;
68457;SDS011;65384;52.016;5.428;2022-12-10T08:05:18;91.90;;;13.88;;
68457;SDS011;65384;52.016;5.428;2022-12-10T08:07:44;66.45;;;15.38;;
68457;SDS011;65384;52.016;5.428;2022-12-10T08:10:09;101.78;;;15.35;;
68457;SDS011;65384;52.016;5.428;2022-12-10T08:12:34;75.35;;;15.05;;
68457;SDS011;65384;52.016;5.428;2022-12-10T08:15:00;147.88;;;14.57;;
68457;SDS011;65384;52.016;5.428;2022-12-10T08:17:27;85.57;;;14.45;;
68457;SDS011;65384;52.016;5.428;2022-12-10T08:19:52;79.47;;;13.75;;
68457;SDS011;65384;52.016;5.428;2022-12-10T08:22:19;59.58;;;11.13;;
68457;SDS011;65384;52.016;5.428;2022-12-10T08:24:44;68.40;;;11.90;;
68457;SDS011;65384;52.016;5.428;2022-12-10T08:27:10;62.55;;;12.30;;
68457;SDS011;65384;52.016;5.428;2022-12-10T08:29:35;78.78;;;14.10;;
68457;SDS011;65384;52.016;5.428;2022-12-10T08:32:01;64.68;;;12.38;;
68457;SDS011;65384;52.016;5.428;2022-12-10T08:34:26;70.07;;;13.68;;
68457;SDS011;65384;52.016;5.428;2022-12-10T08:36:51;52.00;;;12.98;;
68457;SDS011;65384;52.016;5.428;2022-12-10T08:39:17;64.68;;;14.60;;
68457;SDS011;65384;52.016;5.428;2022-12-10T08:41:43;61.75;;;13.52;;
68457;SDS011;65384;52.016;5.428;2022-12-10T08:44:09;55.22;;;13.77;;
68457;SDS011;65384;52.016;5.428;2022-12-10T08:46:35;93.95;;;14.77;;
68457;SDS011;65384;52.016;5.428;2022-12-10T08:49:01;110.03;;;16.67;;
68457;SDS011;65384;52.016;5.428;2022-12-10T08:51:26;90.20;;;15.75;;
68457;SDS011;65384;52.016;5.428;2022-12-10T08:53:52;68.40;;;14.25;;
68457;SDS011;65384;52.016;5.428;2022-12-10T08:56:18;48.67;;;12.02;;
68457;SDS011;65384;52.016;5.428;2022-12-10T08:58:43;65.40;;;12.38;;
68457;SDS011;65384;52.016;5.428;2022-12-10T09:01:09;72.95;;;15.48;;
68457;SDS011;65384;52.016;5.428;2022-12-10T09:03:36;82.93;;;14.27;;
68457;SDS011;65384;52.016;5.428;2022-12-10T09:06:03;57.80;;;13.10;;
68457;SDS011;65384;52.016;5.428;2022-12-10T09:08:30;67.68;;;13.25;;
68457;SDS011;65384;52.016;5.428;2022-12-10T09:10:55;51.42;;;10.55;;
68457;SDS011;65384;52.016;5.428;2022-12-10T09:13:20;46.30;;;10.50;;
68457;SDS011;65384;52.016;5.428;2022-12-10T09:15:49;62.15;;;12.60;;
68457;SDS011;65384;52.016;5.428;2022-12-10T09:18:16;54.05;;;12.85;;
68457;SDS011;65384;52.016;5.428;2022-12-10T09:20:41;82.55;;;13.18;;
68457;SDS011;65384;52.016;5.428;2022-12-10T09:23:06;56.30;;;11.77;;
68457;SDS011;65384;52.016;5.428;2022-12-10T09:25:32;60.42;;;13.45;;
68457;SDS011;65384;52.016;5.428;2022-12-10T09:27:57;83.55;;;13.48;;
68457;SDS011;65384;52.016;5.428;2022-12-10T09:30:22;35.63;;;7.93;;
68457;SDS011;65384;52.016;5.428;2022-12-10T09:32:48;60.63;;;11.43;;
68457;SDS011;65384;52.016;5.428;2022-12-10T09:35:13;56.28;;;12.02;;
68457;SDS011;65384;52.016;5.428;2022-12-10T09:37:38;54.92;;;11.68;;
68457;SDS011;65384;52.016;5.428;2022-12-10T09:40:04;59.17;;;11.68;;
68457;SDS011;65384;52.016;5.428;2022-12-10T09:45:02;65.57;;;10.80;;
68457;SDS011;65384;52.016;5.428;2022-12-10T09:48:15;53.65;;;10.77;;
68457;SDS011;65384;52.016;5.428;2022-12-10T09:52:48;59.38;;;12.70;;
68457;SDS011;65384;52.016;5.428;2022-12-10T09:55:20;50.55;;;10.98;;
68457;SDS011;65384;52.016;5.428;2022-12-10T09:57:51;53.13;;;10.82;;
68457;SDS011;65384;52.016;5.428;2022-12-10T10:02:57;49.47;;;11.43;;
68457;SDS011;65384;52.016;5.428;2022-12-10T10:08:01;65.50;;;12.60;;
68457;SDS011;65384;52.016;5.428;2022-12-10T10:10:30;64.25;;;12.60;;
68457;SDS011;65384;52.016;5.428;2022-12-10T10:12:58;61.72;;;12.63;;
68457;SDS011;65384;52.016;5.428;2022-12-10T10:15:37;65.30;;;13.25;;
68457;SDS011;65384;52.016;5.428;2022-12-10T10:18:08;54.15;;;10.10;;
68457;SDS011;65384;52.016;5.428;2022-12-10T10:20:38;50.25;;;11.80;;
68457;SDS011;65384;52.016;5.428;2022-12-10T10:23:04;76.65;;;12.70;;
68457;SDS011;65384;52.016;5.428;2022-12-10T10:25:29;45.50;;;8.60;;
68457;SDS011;65384;52.016;5.428;2022-12-10T10:27:55;52.00;;;11.30;;
68457;SDS011;65384;52.016;5.428;2022-12-10T10:30:21;33.08;;;8.38;;
68457;SDS011;65384;52.016;5.428;2022-12-10T10:32:51;55.80;;;10.27;;
68457;SDS011;65384;52.016;5.428;2022-12-10T10:35:31;48.72;;;11.93;;
68457;SDS011;65384;52.016;5.428;2022-12-10T10:37:59;42.70;;;9.75;;
68457;SDS011;65384;52.016;5.428;2022-12-10T10:40:32;42.53;;;10.68;;
68457;SDS011;65384;52.016;5.428;2022-12-10T10:43:55;28.17;;;8.70;;
68457;SDS011;65384;52.016;5.428;2022-12-10T10:46:16;51.03;;;12.20;;
68457;SDS011;65384;52.016;5.428;2022-12-10T10:48:45;55.85;;;12.32;;
68457;SDS011;65384;52.016;5.428;2022-12-10T10:53:44;73.05;;;12.27;;
68457;SDS011;65384;52.016;5.428;2022-12-10T10:56:17;78.18;;;11.88;;
68457;SDS011;65384;52.016;5.428;2022-12-10T11:01:15;50.28;;;9.05;;
68457;SDS011;65384;52.016;5.428;2022-12-10T11:03:46;45.78;;;8.68;;
68457;SDS011;65384;52.016;5.428;2022-12-10T11:06:13;47.97;;;11.23;;
68457;SDS011;65384;52.016;5.428;2022-12-10T11:08:38;82.30;;;12.07;;
68457;SDS011;65384;52.016;5.428;2022-12-10T11:11:51;73.88;;;11.77;;
68457;SDS011;65384;52.016;5.428;2022-12-10T11:14:12;81.10;;;10.20;;
68457;SDS011;65384;52.016;5.428;2022-12-10T11:16:46;50.30;;;10.63;;
68457;SDS011;65384;52.016;5.428;2022-12-10T11:19:21;52.45;;;11.23;;
68457;SDS011;65384;52.016;5.428;2022-12-10T11:21:48;63.25;;;11.50;;
68457;SDS011;65384;52.016;5.428;2022-12-10T11:24:14;52.35;;;9.70;;
68457;SDS011;65384;52.016;5.428;2022-12-10T11:35:08;61.03;;;12.02;;
68457;SDS011;65384;52.016;5.428;2022-12-10T11:41:01;49.13;;;11.20;;
68457;SDS011;65384;52.016;5.428;2022-12-10T11:43:44;55.08;;;14.40;;
68457;SDS011;65384;52.016;5.428;2022-12-10T11:49:09;40.83;;;11.10;;
68457;SDS011;65384;52.016;5.428;2022-12-10T11:52:05;45.83;;;10.75;;
68457;SDS011;65384;52.016;5.428;2022-12-10T11:54:48;41.92;;;10.05;;
68457;SDS011;65384;52.016;5.428;2022-12-10T11:57:39;48.50;;;10.93;;
68457;SDS011;65384;52.016;5.428;2022-12-10T12:00:22;46.50;;;10.35;;
68457;SDS011;65384;52.016;5.428;2022-12-10T12:08:55;40.75;;;7.70;;
68457;SDS011;65384;52.016;5.428;2022-12-10T12:14:08;51.45;;;9.85;;
68457;SDS011;65384;52.016;5.428;2022-12-10T12:16:50;65.00;;;10.35;;
68457;SDS011;65384;52.016;5.428;2022-12-10T12:19:23;57.25;;;9.95;;
68457;SDS011;65384;52.016;5.428;2022-12-10T12:21:53;45.15;;;10.98;;
68457;SDS011;65384;52.016;5.428;2022-12-10T12:24:28;66.93;;;11.05;;
68457;SDS011;65384;52.016;5.428;2022-12-10T12:30:02;45.75;;;9.25;;
68457;SDS011;65384;52.016;5.428;2022-12-10T12:32:43;67.82;;;16.00;;
68457;SDS011;65384;52.016;5.428;2022-12-10T12:35:17;71.05;;;15.45;;
68457;SDS011;65384;52.016;5.428;2022-12-10T12:37:52;67.22;;;12.82;;
68457;SDS011;65384;52.016;5.428;2022-12-10T12:40:25;73.60;;;9.10;;
68457;SDS011;65384;52.016;5.428;2022-12-10T12:42:55;55.53;;;9.77;;
68457;SDS011;65384;52.016;5.428;2022-12-10T12:51:15;46.70;;;9.05;;
68457;SDS011;65384;52.016;5.428;2022-12-10T12:53:43;57.72;;;9.30;;
68457;SDS011;65384;52.016;5.428;2022-12-10T13:01:43;63.55;;;11.00;;
68457;SDS011;65384;52.016;5.428;2022-12-10T13:04:14;45.38;;;11.35;;
68457;SDS011;65384;52.016;5.428;2022-12-10T13:06:40;43.17;;;9.80;;
68457;SDS011;65384;52.016;5.428;2022-12-10T13:11:39;59.00;;;11.25;;
68457;SDS011;65384;52.016;5.428;2022-12-10T13:24:20;36.75;;;9.55;;
68457;SDS011;65384;52.016;5.428;2022-12-10T13:32:17;44.97;;;9.65;;
68457;SDS011;65384;52.016;5.428;2022-12-10T13:35:15;57.45;;;9.88;;
68457;SDS011;65384;52.016;5.428;2022-12-10T13:37:34;44.83;;;10.07;;
68457;SDS011;65384;52.016;5.428;2022-12-10T13:40:37;59.83;;;11.23;;
68457;SDS011;65384;52.016;5.428;2022-12-10T13:46:21;44.45;;;9.85;;
68457;SDS011;65384;52.016;5.428;2022-12-10T13:49:05;42.38;;;10.27;;
68457;SDS011;65384;52.016;5.428;2022-12-10T13:57:12;42.38;;;12.75;;
68457;SDS011;65384;52.016;5.428;2022-12-10T13:59:50;50.50;;;10.07;;
68457;SDS011;65384;52.016;5.428;2022-12-10T14:07:46;53.00;;;12.18;;
68457;SDS011;65384;52.016;5.428;2022-12-10T14:10:14;75.82;;;18.23;;
68457;SDS011;65384;52.016;5.428;2022-12-10T14:12:41;63.70;;;19.33;;
68457;SDS011;65384;52.016;5.428;2022-12-10T14:15:08;84.10;;;20.88;;
68457;SDS011;65384;52.016;5.428;2022-12-10T14:17:41;52.92;;;13.65;;
68457;SDS011;65384;52.016;5.428;2022-12-10T14:20:08;40.60;;;9.05;;
68457;SDS011;65384;52.016;5.428;2022-12-10T14:22:44;65.00;;;12.02;;
68457;SDS011;65384;52.016;5.428;2022-12-10T14:25:12;48.35;;;12.18;;
68457;SDS011;65384;52.016;5.428;2022-12-10T14:27:51;69.72;;;12.52;;
68457;SDS011;65384;52.016;5.428;2022-12-10T14:32:47;45.80;;;9.65;;
68457;SDS011;65384;52.016;5.428;2022-12-10T14:35:15;48.17;;;10.70;;
68457;SDS011;65384;52.016;5.428;2022-12-10T14:37:44;46.33;;;11.18;;
68457;SDS011;65384;52.016;5.428;2022-12-10T14:40:18;46.20;;;11.00;;
68457;SDS011;65384;52.016;5.428;2022-12-10T14:42:47;61.13;;;15.27;;
68457;SDS011;65384;52.016;5.428;2022-12-10T14:45:13;65.65;;;12.98;;
68457;SDS011;65384;52.016;5.428;2022-12-10T14:47:39;65.97;;;16.83;;
68457;SDS011;65384;52.016;5.428;2022-12-10T14:50:11;61.80;;;12.70;;
68457;SDS011;65384;52.016;5.428;2022-12-10T14:52:42;55.08;;;15.38;;
68457;SDS011;65384;52.016;5.428;2022-12-10T14:55:15;64.65;;;14.60;;
68457;SDS011;65384;52.016;5.428;2022-12-10T14:57:43;69.38;;;12.55;;
68457;SDS011;65384;52.016;5.428;2022-12-10T15:00:29;64.78;;;11.82;;
68457;SDS011;65384;52.016;5.428;2022-12-10T15:03:17;52.13;;;12.18;;
68457;SDS011;65384;52.016;5.428;2022-12-10T15:05:56;52.83;;;11.40;;
68457;SDS011;65384;52.016;5.428;2022-12-10T15:08:24;63.53;;;13.70;;
68457;SDS011;65384;52.016;5.428;2022-12-10T15:10:59;48.67;;;11.45;;
68457;SDS011;65384;52.016;5.428;2022-12-10T15:13:39;53.58;;;12.68;;
68457;SDS011;65384;52.016;5.428;2022-12-10T15:16:05;51.13;;;11.65;;
68457;SDS011;65384;52.016;5.428;2022-12-10T15:18:37;58.90;;;13.55;;
68457;SDS011;65384;52.016;5.428;2022-12-10T15:21:24;58.57;;;13.10;;
68457;SDS011;65384;52.016;5.428;2022-12-10T15:23:49;52.45;;;12.18;;
68457;SDS011;65384;52.016;5.428;2022-12-10T15:26:18;64.18;;;13.35;;
68457;SDS011;65384;52.016;5.428;2022-12-10T15:28:46;50.53;;;13.45;;
68457;SDS011;65384;52.016;5.428;2022-12-10T15:33:44;65.78;;;13.95;;
68457;SDS011;65384;52.016;5.428;2022-12-10T15:36:19;61.15;;;14.65;;
68457;SDS011;65384;52.016;5.428;2022-12-10T15:38:48;59.78;;;14.23;;
68457;SDS011;65384;52.016;5.428;2022-12-10T15:41:33;65.30;;;12.85;;
68457;SDS011;65384;52.016;5.428;2022-12-10T15:44:06;60.47;;;13.82;;
68457;SDS011;65384;52.016;5.428;2022-12-10T15:49:51;62.97;;;13.60;;
68457;SDS011;65384;52.016;5.428;2022-12-10T15:52:19;56.03;;;12.25;;
68457;SDS011;65384;52.016;5.428;2022-12-10T15:54:52;59.53;;;14.90;;
68457;SDS011;65384;52.016;5.428;2022-12-10T15:57:20;47.78;;;11.40;;
68457;SDS011;65384;52.016;5.428;2022-12-10T15:59:58;63.78;;;14.38;;
68457;SDS011;65384;52.016;5.428;2022-12-10T16:05:31;55.53;;;12.38;;
68457;SDS011;65384;52.016;5.428;2022-12-10T16:07:59;52.63;;;11.95;;
68457;SDS011;65384;52.016;5.428;2022-12-10T16:10:27;64.10;;;12.48;;
68457;SDS011;65384;52.016;5.428;2022-12-10T16:13:00;55.75;;;13.10;;
68457;SDS011;65384;52.016;5.428;2022-12-10T16:15:29;54.63;;;13.57;;
68457;SDS011;65384;52.016;5.428;2022-12-10T16:17:55;68.55;;;13.20;;
68457;SDS011;65384;52.016;5.428;2022-12-10T16:20:25;52.20;;;14.68;;
68457;SDS011;65384;52.016;5.428;2022-12-10T16:22:52;50.55;;;11.95;;
68457;SDS011;65384;52.016;5.428;2022-12-10T16:25:18;53.20;;;13.65;;
68457;SDS011;65384;52.016;5.428;2022-12-10T16:27:43;53.53;;;11.95;;
68457;SDS011;65384;52.016;5.428;2022-12-10T16:30:17;49.38;;;11.35;;
68457;SDS011;65384;52.016;5.428;2022-12-10T16:32:44;43.17;;;9.27;;
68457;SDS011;65384;52.016;5.428;2022-12-10T16:35:10;38.05;;;10.25;;